Wangaratta Aerodrome, Australia
Current Conditions -  °F | °C
As of 1:00 AM on Tuesday 25 Nov 2014 (Local Time) from YMAY Reporting Station
Scattered Clouds Scattered Clouds  
Wind Chill: 61°   Ceiling: Unl
Heat Index: 61°   Visibility: 6mi
Dew Point: 55°   Wind: 14mph
Humidity: 82%   Direction: 270°W
Pressure: 29.88"   Gusts: NA
Location:  36.42°S, 146.3°E
Report Text: YMAY 241400Z AUTO 27012KT 9999 // SCT058 16/13 Q1012
Loading
Personal Weather Stations






























Interactive Weather Map New forecast layout! Learn more

10-Day Weather Forecast

Advertisements
Track Severe Weather on mobile